Архив погоды в Костроме

Метеограмма Кострома
Суббота, 23 Июня
Время местн. Темп Ветер Видим Явления Облачность нижн/средн/верх Атм. давл. Влжн Точка росы ВНГО R Сост. почвы Tg s
Напр Скр Прв ур.ст ур.м изм
15:00 +24.5° С 1 - 30 км - облачно с прояснениями 749 760 +0.1 55% +14.9° 1 км - - - -
12:00 +22.2° С 2 - 30 км - облачно 749 760 +0.4 64% +15° 1 км - - - -
09:00 +19.9° С 2 - 30 км - облачно 748 759 +0.7 73% +14.9° 1 км - - - -
06:00 +19° С-З 3 - 30 км - облачно с прояснениями 748 759 +1.1 83% +16.1° - - Влажная (без луж) - -
03:00 +17.5° З 3 - 30 км - облачно с прояснениями 747 758 +0.9 77% +13.5° 1 км - - - -
00:00 +20° Ю 4 - 50 км - преимущественно облачно 746 757 +0.1 66% +13.4° 1 км - - - -
Пятница, 22 Июня
Время местн. Темп Ветер Видим Явления Облачность нижн/средн/верх Атм. давл. Влжн Точка росы ВНГО R Сост. почвы Tg s
Напр Скр Прв ур.ст ур.м изм
21:00 +22.4° Ю 4 - 30 км - облачно 746 757 -0.5 58% +13.7° 1 км - - - -
18:00 +25.4° Ю,Ю-З 4 - 30 км - переменная облачность 746 757 -0.3 47% +13.4° более 2.5 км 0 - - -
15:00 +25.3° Ю 5 - 30 км - преимущественно облачно 747 757 -0.8 50% +14.2° 1 км - - - -
12:00 +24.1° Ю 4 - 30 км - облачно с прояснениями 747 758 -0.6 57% +15.1° 1 км - - - -
09:00 +20.2° Ю 3 - 30 км - облачно с прояснениями 748 759 +0.1 64% +13.1° более 2.5 км - - - -
06:00 +14.9° Ю-З 2 - 30 км - переменная облачность 748 759 +0.4 84% +12.3° более 2.5 км - Влажная (без луж) - -
03:00 +11.4° З,Ю-З 3 - 30 км - переменная облачность 748 759 +0.4 88% +9.5° более 2.5 км - - - -
00:00 +10.8° З,Ю-З 3 - 50 км - ясно 747 759 +0.7 85% +8.4° более 2.5 км - - - -
Четверг, 21 Июня
Время местн. Темп Ветер Видим Явления Облачность нижн/средн/верх Атм. давл. Влжн Точка росы ВНГО R Сост. почвы Tg s
Напр Скр Прв ур.ст ур.м изм
21:00 +15.4° З 2 - 30 км - облачно 747 758 +0.9 57% +6.9° более 2.5 км - - - -
18:00 +20.1° З,С-З 4 - 30 км - переменная облачность 746 757 +0.8 36% +4.7° 1 км - - - -
15:00 +20.4° З,С-З 4 - 30 км - облачно с прояснениями 745 756 +0.5 39% +6° 1 км - - - -
12:00 +19.1° З,С-З 5 12 30 км - облачно с прояснениями 744 755 +0.3 46% +7.3° 1 км - - - -
09:00 +16.6° З 5 - 30 км - незначительная облачность 744 755 +0.2 55% +7.6° - - - - -
06:00 +12.6° З 3 - 30 км - облачно с прояснениями 744 755 +0.3 69% +7.1° - - Влажная (без луж) - -
03:00 - +11.4° З 4 - - - - 744 755 +0.4 77% +7.6° - - - - -
00:00 +12.3° З 4 - 50 км - переменная облачность 743 754 -0.2 72% +7.4° более 2.5 км - - - -
Среда, 20 Июня
Время местн. Темп Ветер Видим Явления Облачность нижн/средн/верх Атм. давл. Влжн Точка росы ВНГО R Сост. почвы Tg s
Напр Скр Прв ур.ст ур.м изм
21:00 +12.7° З 4 11 30 км небо без изменений {гроза, ливневые осадки} переменная облачность 743 754 -0.4 70% +7.4° более 2.5 км - - - -
18:00 +13.9° З 5 15 30 км слабый ливневый дождь {гроза} облачно 743 754 +1.1 62% +6.7° 1 км 0.4 - - -
15:00 +19.2° З,С-З 5 14 30 км - облачно с прояснениями 742 753 -0.8 39% +5° 1 км - - - -
12:00 +17.3° З,С-З 4 14 30 км - облачно с прояснениями 743 754 +0.6 51% +7.1° 1 км - - - -